sensor_id;sensor_type;location;lat;lon;timestamp;P1;durP1;ratioP1;P2;durP2;ratioP2
6394;SDS011;3230;42.588;23.358;2024-01-07T00:01:12;6.70;;;4.13;;
6394;SDS011;3230;42.588;23.358;2024-01-07T00:03:40;7.97;;;5.10;;
6394;SDS011;3230;42.588;23.358;2024-01-07T00:06:07;5.97;;;3.50;;
6394;SDS011;3230;42.588;23.358;2024-01-07T00:08:33;5.07;;;3.93;;
6394;SDS011;3230;42.588;23.358;2024-01-07T00:10:58;5.30;;;3.20;;
6394;SDS011;3230;42.588;23.358;2024-01-07T00:13:24;7.87;;;5.20;;
6394;SDS011;3230;42.588;23.358;2024-01-07T00:15:49;5.10;;;3.20;;
6394;SDS011;3230;42.588;23.358;2024-01-07T00:18:15;10.27;;;5.17;;
6394;SDS011;3230;42.588;23.358;2024-01-07T00:20:40;7.87;;;4.83;;
6394;SDS011;3230;42.588;23.358;2024-01-07T00:23:05;8.00;;;4.83;;
6394;SDS011;3230;42.588;23.358;2024-01-07T00:25:31;10.20;;;6.27;;
6394;SDS011;3230;42.588;23.358;2024-01-07T00:27:56;7.57;;;3.87;;
6394;SDS011;3230;42.588;23.358;2024-01-07T00:30:22;7.60;;;3.90;;
6394;SDS011;3230;42.588;23.358;2024-01-07T00:32:48;2.90;;;2.60;;
6394;SDS011;3230;42.588;23.358;2024-01-07T00:35:16;4.30;;;3.40;;
6394;SDS011;3230;42.588;23.358;2024-01-07T00:37:41;6.37;;;4.90;;
6394;SDS011;3230;42.588;23.358;2024-01-07T00:40:07;5.50;;;3.30;;
6394;SDS011;3230;42.588;23.358;2024-01-07T00:42:33;5.00;;;2.60;;
6394;SDS011;3230;42.588;23.358;2024-01-07T00:44:58;7.63;;;5.00;;
6394;SDS011;3230;42.588;23.358;2024-01-07T00:47:24;3.77;;;2.80;;
6394;SDS011;3230;42.588;23.358;2024-01-07T00:49:49;4.37;;;2.80;;
6394;SDS011;3230;42.588;23.358;2024-01-07T00:52:15;6.90;;;4.40;;
6394;SDS011;3230;42.588;23.358;2024-01-07T00:54:40;4.20;;;2.50;;
6394;SDS011;3230;42.588;23.358;2024-01-07T00:57:06;3.63;;;2.57;;
6394;SDS011;3230;42.588;23.358;2024-01-07T00:59:31;6.13;;;3.50;;
6394;SDS011;3230;42.588;23.358;2024-01-07T01:01:56;8.30;;;4.50;;
6394;SDS011;3230;42.588;23.358;2024-01-07T01:04:22;3.73;;;2.77;;
6394;SDS011;3230;42.588;23.358;2024-01-07T01:06:47;5.53;;;2.77;;
6394;SDS011;3230;42.588;23.358;2024-01-07T01:09:13;4.43;;;3.30;;
6394;SDS011;3230;42.588;23.358;2024-01-07T01:11:38;3.23;;;2.50;;
6394;SDS011;3230;42.588;23.358;2024-01-07T01:14:04;5.30;;;2.80;;
6394;SDS011;3230;42.588;23.358;2024-01-07T01:16:29;5.10;;;3.10;;
6394;SDS011;3230;42.588;23.358;2024-01-07T01:18:55;5.17;;;2.63;;
6394;SDS011;3230;42.588;23.358;2024-01-07T01:21:20;7.43;;;3.27;;
6394;SDS011;3230;42.588;23.358;2024-01-07T01:23:46;4.10;;;2.47;;
6394;SDS011;3230;42.588;23.358;2024-01-07T01:26:12;5.37;;;3.50;;
6394;SDS011;3230;42.588;23.358;2024-01-07T01:28:37;6.60;;;4.27;;
6394;SDS011;3230;42.588;23.358;2024-01-07T01:31:03;9.97;;;5.00;;
6394;SDS011;3230;42.588;23.358;2024-01-07T01:33:36;7.57;;;3.70;;
6394;SDS011;3230;42.588;23.358;2024-01-07T01:36:04;14.53;;;4.67;;
6394;SDS011;3230;42.588;23.358;2024-01-07T01:38:31;6.57;;;4.27;;
6394;SDS011;3230;42.588;23.358;2024-01-07T01:40:56;6.17;;;2.93;;
6394;SDS011;3230;42.588;23.358;2024-01-07T01:43:26;6.20;;;4.10;;
6394;SDS011;3230;42.588;23.358;2024-01-07T01:45:55;4.03;;;2.73;;
6394;SDS011;3230;42.588;23.358;2024-01-07T01:48:25;5.13;;;2.60;;
6394;SDS011;3230;42.588;23.358;2024-01-07T01:50:52;3.80;;;2.40;;
6394;SDS011;3230;42.588;23.358;2024-01-07T01:53:19;7.73;;;4.10;;
6394;SDS011;3230;42.588;23.358;2024-01-07T01:55:44;17.20;;;8.70;;
6394;SDS011;3230;42.588;23.358;2024-01-07T01:58:10;8.33;;;4.53;;
6394;SDS011;3230;42.588;23.358;2024-01-07T02:00:38;16.47;;;7.50;;
6394;SDS011;3230;42.588;23.358;2024-01-07T02:03:04;6.57;;;2.60;;
6394;SDS011;3230;42.588;23.358;2024-01-07T02:05:29;3.63;;;2.63;;
6394;SDS011;3230;42.588;23.358;2024-01-07T02:07:55;5.27;;;3.50;;
6394;SDS011;3230;42.588;23.358;2024-01-07T02:10:21;11.63;;;6.10;;
6394;SDS011;3230;42.588;23.358;2024-01-07T02:12:47;7.60;;;4.40;;
6394;SDS011;3230;42.588;23.358;2024-01-07T02:15:13;5.03;;;2.90;;
6394;SDS011;3230;42.588;23.358;2024-01-07T02:17:39;3.87;;;2.73;;
6394;SDS011;3230;42.588;23.358;2024-01-07T02:20:05;6.43;;;4.07;;
6394;SDS011;3230;42.588;23.358;2024-01-07T02:22:31;4.40;;;3.03;;
6394;SDS011;3230;42.588;23.358;2024-01-07T02:24:56;4.50;;;2.37;;
6394;SDS011;3230;42.588;23.358;2024-01-07T02:27:21;3.47;;;2.40;;
6394;SDS011;3230;42.588;23.358;2024-01-07T02:29:47;3.93;;;2.53;;
6394;SDS011;3230;42.588;23.358;2024-01-07T02:32:12;2.93;;;2.63;;
6394;SDS011;3230;42.588;23.358;2024-01-07T02:34:38;3.83;;;2.60;;
6394;SDS011;3230;42.588;23.358;2024-01-07T02:37:03;4.67;;;3.40;;
6394;SDS011;3230;42.588;23.358;2024-01-07T02:39:29;4.97;;;3.60;;
6394;SDS011;3230;42.588;23.358;2024-01-07T02:41:54;4.13;;;3.00;;
6394;SDS011;3230;42.588;23.358;2024-01-07T02:44:20;4.20;;;2.93;;
6394;SDS011;3230;42.588;23.358;2024-01-07T02:46:45;2.90;;;2.50;;
6394;SDS011;3230;42.588;23.358;2024-01-07T02:49:11;3.60;;;2.50;;
6394;SDS011;3230;42.588;23.358;2024-01-07T02:51:38;2.40;;;2.20;;
6394;SDS011;3230;42.588;23.358;2024-01-07T02:54:03;4.67;;;2.47;;
6394;SDS011;3230;42.588;23.358;2024-01-07T02:56:29;4.63;;;2.67;;
6394;SDS011;3230;42.588;23.358;2024-01-07T02:58:54;4.10;;;2.50;;
6394;SDS011;3230;42.588;23.358;2024-01-07T03:01:24;3.37;;;2.47;;
6394;SDS011;3230;42.588;23.358;2024-01-07T03:03:49;5.03;;;2.03;;
6394;SDS011;3230;42.588;23.358;2024-01-07T03:06:15;3.93;;;2.63;;
6394;SDS011;3230;42.588;23.358;2024-01-07T03:08:41;2.47;;;2.27;;
6394;SDS011;3230;42.588;23.358;2024-01-07T03:11:07;3.87;;;2.63;;
6394;SDS011;3230;42.588;23.358;2024-01-07T03:13:33;2.70;;;2.50;;
6394;SDS011;3230;42.588;23.358;2024-01-07T03:15:58;3.00;;;2.30;;
6394;SDS011;3230;42.588;23.358;2024-01-07T03:18:24;3.30;;;2.40;;
6394;SDS011;3230;42.588;23.358;2024-01-07T03:20:49;3.03;;;2.73;;
6394;SDS011;3230;42.588;23.358;2024-01-07T03:23:14;5.40;;;3.33;;
6394;SDS011;3230;42.588;23.358;2024-01-07T03:25:40;6.43;;;3.80;;
6394;SDS011;3230;42.588;23.358;2024-01-07T03:28:05;3.00;;;2.60;;
6394;SDS011;3230;42.588;23.358;2024-01-07T03:30:31;5.50;;;2.90;;
6394;SDS011;3230;42.588;23.358;2024-01-07T03:32:56;5.93;;;3.20;;
6394;SDS011;3230;42.588;23.358;2024-01-07T03:35:22;3.50;;;2.87;;
6394;SDS011;3230;42.588;23.358;2024-01-07T03:37:49;6.80;;;3.73;;
6394;SDS011;3230;42.588;23.358;2024-01-07T03:40:14;1.70;;;1.40;;
6394;SDS011;3230;42.588;23.358;2024-01-07T03:42:40;1.70;;;1.50;;
6394;SDS011;3230;42.588;23.358;2024-01-07T03:45:05;1.70;;;1.10;;
6394;SDS011;3230;42.588;23.358;2024-01-07T03:47:37;1.20;;;1.10;;
6394;SDS011;3230;42.588;23.358;2024-01-07T03:50:03;6.87;;;3.60;;
6394;SDS011;3230;42.588;23.358;2024-01-07T03:52:29;16.20;;;8.40;;
6394;SDS011;3230;42.588;23.358;2024-01-07T03:54:55;2.10;;;1.83;;
6394;SDS011;3230;42.588;23.358;2024-01-07T03:57:20;2.70;;;1.83;;
6394;SDS011;3230;42.588;23.358;2024-01-07T03:59:46;2.90;;;2.10;;
6394;SDS011;3230;42.588;23.358;2024-01-07T04:02:11;2.57;;;1.80;;
6394;SDS011;3230;42.588;23.358;2024-01-07T04:04:37;4.00;;;1.70;;
6394;SDS011;3230;42.588;23.358;2024-01-07T04:07:02;1.87;;;1.70;;
6394;SDS011;3230;42.588;23.358;2024-01-07T04:09:28;1.60;;;1.50;;
6394;SDS011;3230;42.588;23.358;2024-01-07T04:11:53;1.63;;;1.53;;
6394;SDS011;3230;42.588;23.358;2024-01-07T04:14:18;2.90;;;1.70;;
6394;SDS011;3230;42.588;23.358;2024-01-07T04:16:44;1.67;;;1.57;;
6394;SDS011;3230;42.588;23.358;2024-01-07T04:19:09;5.23;;;2.80;;
6394;SDS011;3230;42.588;23.358;2024-01-07T04:21:34;4.43;;;3.67;;
6394;SDS011;3230;42.588;23.358;2024-01-07T04:24:00;4.30;;;3.60;;
6394;SDS011;3230;42.588;23.358;2024-01-07T04:26:26;6.70;;;3.80;;
6394;SDS011;3230;42.588;23.358;2024-01-07T04:28:51;6.97;;;3.73;;
6394;SDS011;3230;42.588;23.358;2024-01-07T04:31:17;7.63;;;4.73;;
6394;SDS011;3230;42.588;23.358;2024-01-07T04:33:42;6.87;;;4.90;;
6394;SDS011;3230;42.588;23.358;2024-01-07T04:36:08;7.07;;;3.60;;
6394;SDS011;3230;42.588;23.358;2024-01-07T04:38:34;6.20;;;4.17;;
6394;SDS011;3230;42.588;23.358;2024-01-07T04:40:59;5.87;;;3.90;;
6394;SDS011;3230;42.588;23.358;2024-01-07T04:43:25;6.20;;;4.23;;
6394;SDS011;3230;42.588;23.358;2024-01-07T04:45:50;7.50;;;4.40;;
6394;SDS011;3230;42.588;23.358;2024-01-07T04:48:15;5.57;;;4.30;;
6394;SDS011;3230;42.588;23.358;2024-01-07T04:50:41;7.50;;;4.30;;
6394;SDS011;3230;42.588;23.358;2024-01-07T04:53:09;7.80;;;4.53;;
6394;SDS011;3230;42.588;23.358;2024-01-07T04:55:35;8.70;;;4.77;;
6394;SDS011;3230;42.588;23.358;2024-01-07T04:58:01;8.80;;;4.70;;
6394;SDS011;3230;42.588;23.358;2024-01-07T05:00:27;7.40;;;4.37;;
6394;SDS011;3230;42.588;23.358;2024-01-07T05:02:52;7.53;;;4.43;;
6394;SDS011;3230;42.588;23.358;2024-01-07T05:05:18;7.93;;;4.20;;
6394;SDS011;3230;42.588;23.358;2024-01-07T05:07:43;5.70;;;4.50;;
6394;SDS011;3230;42.588;23.358;2024-01-07T05:10:09;6.20;;;4.43;;
6394;SDS011;3230;42.588;23.358;2024-01-07T05:12:35;6.73;;;4.27;;
6394;SDS011;3230;42.588;23.358;2024-01-07T05:15:00;6.40;;;4.43;;
6394;SDS011;3230;42.588;23.358;2024-01-07T05:17:26;6.70;;;4.33;;
6394;SDS011;3230;42.588;23.358;2024-01-07T05:19:53;6.00;;;4.37;;
6394;SDS011;3230;42.588;23.358;2024-01-07T05:22:19;7.67;;;4.23;;
6394;SDS011;3230;42.588;23.358;2024-01-07T05:24:46;8.10;;;4.13;;
6394;SDS011;3230;42.588;23.358;2024-01-07T05:27:11;4.50;;;3.60;;
6394;SDS011;3230;42.588;23.358;2024-01-07T05:29:36;7.83;;;3.90;;
6394;SDS011;3230;42.588;23.358;2024-01-07T05:32:02;8.30;;;5.00;;
6394;SDS011;3230;42.588;23.358;2024-01-07T05:34:28;10.23;;;6.30;;
6394;SDS011;3230;42.588;23.358;2024-01-07T05:36:54;11.30;;;6.50;;
6394;SDS011;3230;42.588;23.358;2024-01-07T05:39:19;9.43;;;5.43;;
6394;SDS011;3230;42.588;23.358;2024-01-07T05:41:45;5.13;;;3.83;;
6394;SDS011;3230;42.588;23.358;2024-01-07T05:44:11;7.57;;;4.70;;
6394;SDS011;3230;42.588;23.358;2024-01-07T05:46:40;8.07;;;5.20;;
6394;SDS011;3230;42.588;23.358;2024-01-07T05:49:06;9.43;;;5.23;;
6394;SDS011;3230;42.588;23.358;2024-01-07T05:51:33;6.47;;;4.63;;
6394;SDS011;3230;42.588;23.358;2024-01-07T05:53:58;9.17;;;5.50;;
6394;SDS011;3230;42.588;23.358;2024-01-07T05:56:23;7.57;;;5.00;;
6394;SDS011;3230;42.588;23.358;2024-01-07T05:58:49;12.90;;;8.37;;
6394;SDS011;3230;42.588;23.358;2024-01-07T06:01:20;13.77;;;7.73;;
6394;SDS011;3230;42.588;23.358;2024-01-07T06:03:47;13.33;;;7.47;;
6394;SDS011;3230;42.588;23.358;2024-01-07T06:06:13;18.50;;;8.00;;
6394;SDS011;3230;42.588;23.358;2024-01-07T06:08:39;13.03;;;7.80;;
6394;SDS011;3230;42.588;23.358;2024-01-07T06:11:06;13.63;;;7.63;;
6394;SDS011;3230;42.588;23.358;2024-01-07T06:13:32;13.67;;;9.07;;
6394;SDS011;3230;42.588;23.358;2024-01-07T06:15:57;17.87;;;11.40;;
6394;SDS011;3230;42.588;23.358;2024-01-07T06:18:22;30.57;;;19.20;;
6394;SDS011;3230;42.588;23.358;2024-01-07T06:20:48;19.17;;;11.80;;
6394;SDS011;3230;42.588;23.358;2024-01-07T06:23:14;41.73;;;11.40;;
6394;SDS011;3230;42.588;23.358;2024-01-07T06:25:39;24.53;;;13.93;;
6394;SDS011;3230;42.588;23.358;2024-01-07T06:28:05;143.07;;;63.80;;
6394;SDS011;3230;42.588;23.358;2024-01-07T06:30:31;90.63;;;40.13;;
6394;SDS011;3230;42.588;23.358;2024-01-07T06:32:56;114.10;;;18.50;;
6394;SDS011;3230;42.588;23.358;2024-01-07T06:35:21;65.37;;;11.37;;
6394;SDS011;3230;42.588;23.358;2024-01-07T06:37:47;42.20;;;14.30;;
6394;SDS011;3230;42.588;23.358;2024-01-07T06:40:14;86.47;;;28.80;;
6394;SDS011;3230;42.588;23.358;2024-01-07T06:42:39;108.20;;;21.50;;
6394;SDS011;3230;42.588;23.358;2024-01-07T06:45:06;40.90;;;15.57;;
6394;SDS011;3230;42.588;23.358;2024-01-07T06:47:31;30.30;;;11.70;;
6394;SDS011;3230;42.588;23.358;2024-01-07T06:49:57;14.13;;;6.93;;
6394;SDS011;3230;42.588;23.358;2024-01-07T06:52:22;14.77;;;7.77;;
6394;SDS011;3230;42.588;23.358;2024-01-07T06:54:48;16.13;;;8.83;;
6394;SDS011;3230;42.588;23.358;2024-01-07T06:57:13;16.70;;;10.37;;
6394;SDS011;3230;42.588;23.358;2024-01-07T06:59:39;14.97;;;8.40;;
6394;SDS011;3230;42.588;23.358;2024-01-07T07:02:04;12.63;;;6.40;;
6394;SDS011;3230;42.588;23.358;2024-01-07T07:04:30;12.00;;;7.73;;
6394;SDS011;3230;42.588;23.358;2024-01-07T07:06:55;11.53;;;8.10;;
6394;SDS011;3230;42.588;23.358;2024-01-07T07:09:22;10.17;;;6.43;;
6394;SDS011;3230;42.588;23.358;2024-01-07T07:11:48;9.50;;;5.80;;
6394;SDS011;3230;42.588;23.358;2024-01-07T07:14:13;8.93;;;6.00;;
6394;SDS011;3230;42.588;23.358;2024-01-07T07:16:38;8.37;;;5.60;;
6394;SDS011;3230;42.588;23.358;2024-01-07T07:19:04;10.43;;;6.70;;
6394;SDS011;3230;42.588;23.358;2024-01-07T07:21:29;9.00;;;6.13;;
6394;SDS011;3230;42.588;23.358;2024-01-07T07:23:54;10.47;;;7.33;;
6394;SDS011;3230;42.588;23.358;2024-01-07T07:26:20;11.10;;;6.80;;
6394;SDS011;3230;42.588;23.358;2024-01-07T07:28:46;6.43;;;4.93;;
6394;SDS011;3230;42.588;23.358;2024-01-07T07:31:12;9.97;;;6.10;;
6394;SDS011;3230;42.588;23.358;2024-01-07T07:33:40;11.53;;;7.23;;
6394;SDS011;3230;42.588;23.358;2024-01-07T07:36:06;11.10;;;7.10;;
6394;SDS011;3230;42.588;23.358;2024-01-07T07:38:32;10.87;;;7.17;;
6394;SDS011;3230;42.588;23.358;2024-01-07T07:40:58;13.33;;;6.60;;
6394;SDS011;3230;42.588;23.358;2024-01-07T07:43:24;7.67;;;5.20;;
6394;SDS011;3230;42.588;23.358;2024-01-07T07:45:50;10.10;;;3.83;;
6394;SDS011;3230;42.588;23.358;2024-01-07T07:48:15;4.33;;;3.23;;
6394;SDS011;3230;42.588;23.358;2024-01-07T07:50:42;3.97;;;2.90;;
6394;SDS011;3230;42.588;23.358;2024-01-07T07:53:07;1.70;;;1.37;;
6394;SDS011;3230;42.588;23.358;2024-01-07T07:55:32;2.07;;;1.50;;
6394;SDS011;3230;42.588;23.358;2024-01-07T07:57:58;5.93;;;2.00;;
6394;SDS011;3230;42.588;23.358;2024-01-07T08:00:23;5.00;;;1.90;;
6394;SDS011;3230;42.588;23.358;2024-01-07T08:02:49;1.67;;;1.37;;
6394;SDS011;3230;42.588;23.358;2024-01-07T08:05:15;1.53;;;1.20;;
6394;SDS011;3230;42.588;23.358;2024-01-07T08:07:40;1.60;;;1.50;;
6394;SDS011;3230;42.588;23.358;2024-01-07T08:10:06;5.70;;;3.50;;
6394;SDS011;3230;42.588;23.358;2024-01-07T08:12:33;7.37;;;4.10;;
6394;SDS011;3230;42.588;23.358;2024-01-07T08:14:58;8.53;;;5.80;;
6394;SDS011;3230;42.588;23.358;2024-01-07T08:17:24;8.13;;;5.27;;
6394;SDS011;3230;42.588;23.358;2024-01-07T08:19:49;10.57;;;5.10;;
6394;SDS011;3230;42.588;23.358;2024-01-07T08:22:15;8.50;;;5.20;;
6394;SDS011;3230;42.588;23.358;2024-01-07T08:24:41;8.13;;;5.20;;
6394;SDS011;3230;42.588;23.358;2024-01-07T08:27:07;14.60;;;7.70;;
6394;SDS011;3230;42.588;23.358;2024-01-07T08:29:33;8.10;;;5.20;;
6394;SDS011;3230;42.588;23.358;2024-01-07T08:32:00;6.80;;;3.93;;
6394;SDS011;3230;42.588;23.358;2024-01-07T08:34:26;5.23;;;2.83;;
6394;SDS011;3230;42.588;23.358;2024-01-07T08:36:52;5.50;;;3.37;;
6394;SDS011;3230;42.588;23.358;2024-01-07T08:39:19;7.03;;;3.43;;
6394;SDS011;3230;42.588;23.358;2024-01-07T08:41:44;3.50;;;2.40;;
6394;SDS011;3230;42.588;23.358;2024-01-07T08:44:10;4.77;;;3.30;;
6394;SDS011;3230;42.588;23.358;2024-01-07T08:46:36;4.70;;;3.03;;
6394;SDS011;3230;42.588;23.358;2024-01-07T08:49:01;5.70;;;2.80;;
6394;SDS011;3230;42.588;23.358;2024-01-07T08:51:27;4.23;;;2.83;;
6394;SDS011;3230;42.588;23.358;2024-01-07T08:53:54;6.10;;;3.50;;
6394;SDS011;3230;42.588;23.358;2024-01-07T08:56:20;7.43;;;3.30;;
6394;SDS011;3230;42.588;23.358;2024-01-07T08:58:45;5.67;;;3.20;;
6394;SDS011;3230;42.588;23.358;2024-01-07T09:01:10;5.10;;;3.67;;
6394;SDS011;3230;42.588;23.358;2024-01-07T09:03:36;4.57;;;3.00;;
6394;SDS011;3230;42.588;23.358;2024-01-07T09:06:01;6.30;;;4.10;;
6394;SDS011;3230;42.588;23.358;2024-01-07T09:08:27;6.27;;;4.13;;
6394;SDS011;3230;42.588;23.358;2024-01-07T09:10:53;7.07;;;4.37;;
6394;SDS011;3230;42.588;23.358;2024-01-07T09:13:18;8.00;;;4.03;;
6394;SDS011;3230;42.588;23.358;2024-01-07T09:15:44;6.97;;;4.57;;
6394;SDS011;3230;42.588;23.358;2024-01-07T09:18:10;7.40;;;4.40;;
6394;SDS011;3230;42.588;23.358;2024-01-07T09:20:35;6.87;;;4.50;;
6394;SDS011;3230;42.588;23.358;2024-01-07T09:23:01;5.10;;;3.80;;
6394;SDS011;3230;42.588;23.358;2024-01-07T09:25:26;6.67;;;4.83;;
6394;SDS011;3230;42.588;23.358;2024-01-07T09:27:52;6.77;;;4.10;;
6394;SDS011;3230;42.588;23.358;2024-01-07T09:30:17;5.00;;;3.53;;
6394;SDS011;3230;42.588;23.358;2024-01-07T09:32:43;7.87;;;4.73;;
6394;SDS011;3230;42.588;23.358;2024-01-07T09:35:09;7.03;;;4.60;;
6394;SDS011;3230;42.588;23.358;2024-01-07T09:37:34;5.73;;;4.00;;
6394;SDS011;3230;42.588;23.358;2024-01-07T09:40:00;8.57;;;6.50;;
6394;SDS011;3230;42.588;23.358;2024-01-07T09:42:26;11.07;;;6.80;;
6394;SDS011;3230;42.588;23.358;2024-01-07T09:44:52;8.83;;;6.30;;
6394;SDS011;3230;42.588;23.358;2024-01-07T09:47:17;8.57;;;5.40;;
6394;SDS011;3230;42.588;23.358;2024-01-07T09:49:43;11.33;;;7.00;;
6394;SDS011;3230;42.588;23.358;2024-01-07T09:52:09;14.53;;;8.17;;
6394;SDS011;3230;42.588;23.358;2024-01-07T09:54:36;24.20;;;6.67;;
6394;SDS011;3230;42.588;23.358;2024-01-07T09:57:05;8.20;;;5.80;;
6394;SDS011;3230;42.588;23.358;2024-01-07T09:59:32;17.43;;;8.37;;
6394;SDS011;3230;42.588;23.358;2024-01-07T10:01:59;17.23;;;9.17;;
6394;SDS011;3230;42.588;23.358;2024-01-07T10:04:25;47.27;;;8.13;;
6394;SDS011;3230;42.588;23.358;2024-01-07T10:06:52;17.57;;;8.53;;
6394;SDS011;3230;42.588;23.358;2024-01-07T10:09:19;15.60;;;7.10;;
6394;SDS011;3230;42.588;23.358;2024-01-07T10:11:44;16.90;;;10.00;;
6394;SDS011;3230;42.588;23.358;2024-01-07T10:14:10;19.63;;;11.13;;
6394;SDS011;3230;42.588;23.358;2024-01-07T10:16:35;19.50;;;12.40;;
6394;SDS011;3230;42.588;23.358;2024-01-07T10:19:01;21.30;;;13.10;;
6394;SDS011;3230;42.588;23.358;2024-01-07T10:21:27;21.67;;;13.40;;
6394;SDS011;3230;42.588;23.358;2024-01-07T10:24:08;14.97;;;8.30;;
6394;SDS011;3230;42.588;23.358;2024-01-07T10:26:35;12.67;;;5.60;;
6394;SDS011;3230;42.588;23.358;2024-01-07T10:29:02;7.83;;;4.97;;
6394;SDS011;3230;42.588;23.358;2024-01-07T10:31:28;9.53;;;5.83;;
6394;SDS011;3230;42.588;23.358;2024-01-07T10:33:54;7.33;;;3.80;;
6394;SDS011;3230;42.588;23.358;2024-01-07T10:36:21;11.87;;;7.00;;
6394;SDS011;3230;42.588;23.358;2024-01-07T10:38:47;12.63;;;5.90;;
6394;SDS011;3230;42.588;23.358;2024-01-07T10:41:13;6.70;;;4.40;;
6394;SDS011;3230;42.588;23.358;2024-01-07T10:43:40;4.20;;;2.97;;
6394;SDS011;3230;42.588;23.358;2024-01-07T10:46:11;7.17;;;4.57;;
6394;SDS011;3230;42.588;23.358;2024-01-07T10:48:38;6.20;;;3.93;;
6394;SDS011;3230;42.588;23.358;2024-01-07T10:51:16;4.60;;;3.37;;
6394;SDS011;3230;42.588;23.358;2024-01-07T10:53:43;7.63;;;4.53;;
6394;SDS011;3230;42.588;23.358;2024-01-07T10:56:11;10.50;;;5.50;;
6394;SDS011;3230;42.588;23.358;2024-01-07T10:58:38;12.90;;;4.60;;
6394;SDS011;3230;42.588;23.358;2024-01-07T11:01:05;5.37;;;3.97;;
6394;SDS011;3230;42.588;23.358;2024-01-07T11:08:40;7.43;;;4.77;;
6394;SDS011;3230;42.588;23.358;2024-01-07T11:11:18;14.00;;;5.47;;
6394;SDS011;3230;42.588;23.358;2024-01-07T11:13:49;13.37;;;7.63;;
6394;SDS011;3230;42.588;23.358;2024-01-07T11:16:14;7.70;;;5.13;;
6394;SDS011;3230;42.588;23.358;2024-01-07T11:19:06;9.17;;;6.50;;
6394;SDS011;3230;42.588;23.358;2024-01-07T11:21:32;9.37;;;5.67;;
6394;SDS011;3230;42.588;23.358;2024-01-07T11:23:57;9.13;;;6.27;;
6394;SDS011;3230;42.588;23.358;2024-01-07T11:26:23;7.60;;;5.40;;
6394;SDS011;3230;42.588;23.358;2024-01-07T11:28:57;12.20;;;7.90;;
6394;SDS011;3230;42.588;23.358;2024-01-07T11:31:44;20.17;;;9.00;;
6394;SDS011;3230;42.588;23.358;2024-01-07T11:37:10;11.17;;;5.40;;
6394;SDS011;3230;42.588;23.358;2024-01-07T11:39:41;8.97;;;5.73;;
6394;SDS011;3230;42.588;23.358;2024-01-07T11:42:10;11.30;;;5.83;;
6394;SDS011;3230;42.588;23.358;2024-01-07T11:44:48;9.30;;;5.50;;
6394;SDS011;3230;42.588;23.358;2024-01-07T11:47:17;8.60;;;5.27;;
6394;SDS011;3230;42.588;23.358;2024-01-07T11:49:43;9.03;;;5.40;;
6394;SDS011;3230;42.588;23.358;2024-01-07T11:52:09;8.13;;;5.30;;
6394;SDS011;3230;42.588;23.358;2024-01-07T11:54:38;9.40;;;5.93;;
6394;SDS011;3230;42.588;23.358;2024-01-07T11:57:07;8.40;;;5.07;;
6394;SDS011;3230;42.588;23.358;2024-01-07T11:59:33;8.13;;;5.30;;
6394;SDS011;3230;42.588;23.358;2024-01-07T12:01:59;9.40;;;6.03;;
6394;SDS011;3230;42.588;23.358;2024-01-07T12:04:25;10.90;;;6.30;;
6394;SDS011;3230;42.588;23.358;2024-01-07T12:06:51;10.07;;;4.97;;
6394;SDS011;3230;42.588;23.358;2024-01-07T12:09:16;8.33;;;5.17;;
6394;SDS011;3230;42.588;23.358;2024-01-07T12:11:42;7.83;;;4.40;;
6394;SDS011;3230;42.588;23.358;2024-01-07T12:14:15;8.07;;;4.87;;
6394;SDS011;3230;42.588;23.358;2024-01-07T12:16:41;7.30;;;4.77;;
6394;SDS011;3230;42.588;23.358;2024-01-07T12:19:08;9.80;;;5.20;;
6394;SDS011;3230;42.588;23.358;2024-01-07T12:21:34;13.50;;;5.90;;
6394;SDS011;3230;42.588;23.358;2024-01-07T12:24:00;8.53;;;4.87;;
6394;SDS011;3230;42.588;23.358;2024-01-07T12:26:26;7.90;;;5.07;;
6394;SDS011;3230;42.588;23.358;2024-01-07T12:28:53;6.90;;;4.50;;
6394;SDS011;3230;42.588;23.358;2024-01-07T12:31:20;7.50;;;4.67;;
6394;SDS011;3230;42.588;23.358;2024-01-07T12:33:46;9.27;;;4.67;;
6394;SDS011;3230;42.588;23.358;2024-01-07T12:36:12;9.43;;;4.73;;
6394;SDS011;3230;42.588;23.358;2024-01-07T12:38:37;6.27;;;3.83;;
6394;SDS011;3230;42.588;23.358;2024-01-07T12:41:03;6.70;;;4.60;;
6394;SDS011;3230;42.588;23.358;2024-01-07T12:43:30;8.33;;;4.30;;
6394;SDS011;3230;42.588;23.358;2024-01-07T12:45:56;5.53;;;3.60;;
6394;SDS011;3230;42.588;23.358;2024-01-07T12:48:22;18.27;;;9.93;;
6394;SDS011;3230;42.588;23.358;2024-01-07T12:50:47;35.07;;;18.43;;
6394;SDS011;3230;42.588;23.358;2024-01-07T12:53:13;4.77;;;3.70;;
6394;SDS011;3230;42.588;23.358;2024-01-07T12:55:39;19.30;;;8.50;;
6394;SDS011;3230;42.588;23.358;2024-01-07T12:58:04;7.20;;;4.40;;
6394;SDS011;3230;42.588;23.358;2024-01-07T13:00:30;6.13;;;4.17;;
6394;SDS011;3230;42.588;23.358;2024-01-07T13:02:55;8.93;;;5.10;;
6394;SDS011;3230;42.588;23.358;2024-01-07T13:05:21;8.60;;;5.27;;
6394;SDS011;3230;42.588;23.358;2024-01-07T13:07:46;8.40;;;4.77;;
6394;SDS011;3230;42.588;23.358;2024-01-07T13:10:12;5.83;;;3.80;;
6394;SDS011;3230;42.588;23.358;2024-01-07T13:12:38;7.63;;;4.50;;
6394;SDS011;3230;42.588;23.358;2024-01-07T13:15:04;10.63;;;5.67;;
6394;SDS011;3230;42.588;23.358;2024-01-07T13:17:30;9.60;;;5.20;;
6394;SDS011;3230;42.588;23.358;2024-01-07T13:19:57;7.80;;;4.60;;
6394;SDS011;3230;42.588;23.358;2024-01-07T13:22:23;9.17;;;6.20;;
6394;SDS011;3230;42.588;23.358;2024-01-07T13:24:49;4.83;;;3.50;;
6394;SDS011;3230;42.588;23.358;2024-01-07T13:27:15;4.70;;;3.37;;
6394;SDS011;3230;42.588;23.358;2024-01-07T13:29:42;6.03;;;3.73;;
6394;SDS011;3230;42.588;23.358;2024-01-07T13:32:10;5.43;;;3.20;;
6394;SDS011;3230;42.588;23.358;2024-01-07T13:34:36;9.73;;;5.43;;
6394;SDS011;3230;42.588;23.358;2024-01-07T13:37:01;7.27;;;3.90;;
6394;SDS011;3230;42.588;23.358;2024-01-07T13:39:28;9.70;;;3.40;;
6394;SDS011;3230;42.588;23.358;2024-01-07T13:41:54;7.27;;;4.87;;
6394;SDS011;3230;42.588;23.358;2024-01-07T13:44:20;6.83;;;3.63;;
6394;SDS011;3230;42.588;23.358;2024-01-07T13:46:46;5.70;;;2.87;;
6394;SDS011;3230;42.588;23.358;2024-01-07T13:49:14;4.80;;;3.20;;
6394;SDS011;3230;42.588;23.358;2024-01-07T13:51:41;5.73;;;3.00;;
6394;SDS011;3230;42.588;23.358;2024-01-07T13:54:07;3.70;;;2.97;;
6394;SDS011;3230;42.588;23.358;2024-01-07T13:56:35;6.43;;;3.30;;
6394;SDS011;3230;42.588;23.358;2024-01-07T13:59:01;6.00;;;3.37;;
6394;SDS011;3230;42.588;23.358;2024-01-07T14:01:30;4.30;;;2.93;;
6394;SDS011;3230;42.588;23.358;2024-01-07T14:03:56;6.07;;;3.13;;
6394;SDS011;3230;42.588;23.358;2024-01-07T14:06:22;3.70;;;3.10;;
6394;SDS011;3230;42.588;23.358;2024-01-07T14:08:47;59.77;;;30.80;;
6394;SDS011;3230;42.588;23.358;2024-01-07T14:11:12;24.23;;;12.30;;
6394;SDS011;3230;42.588;23.358;2024-01-07T14:13:38;7.10;;;4.43;;
6394;SDS011;3230;42.588;23.358;2024-01-07T14:16:03;19.00;;;11.27;;
6394;SDS011;3230;42.588;23.358;2024-01-07T14:18:29;5.33;;;4.27;;
6394;SDS011;3230;42.588;23.358;2024-01-07T14:20:55;9.60;;;5.70;;
6394;SDS011;3230;42.588;23.358;2024-01-07T14:23:20;23.53;;;16.83;;
6394;SDS011;3230;42.588;23.358;2024-01-07T14:25:46;10.93;;;5.00;;
6394;SDS011;3230;42.588;23.358;2024-01-07T14:28:18;9.90;;;6.57;;
6394;SDS011;3230;42.588;23.358;2024-01-07T14:30:43;5.30;;;3.53;;
6394;SDS011;3230;42.588;23.358;2024-01-07T14:33:09;11.80;;;8.10;;
6394;SDS011;3230;42.588;23.358;2024-01-07T14:35:35;6.20;;;4.03;;
6394;SDS011;3230;42.588;23.358;2024-01-07T14:38:00;7.93;;;4.27;;
6394;SDS011;3230;42.588;23.358;2024-01-07T14:40:26;4.10;;;3.30;;
6394;SDS011;3230;42.588;23.358;2024-01-07T14:42:52;6.83;;;5.00;;
6394;SDS011;3230;42.588;23.358;2024-01-07T14:45:23;5.83;;;3.87;;
6394;SDS011;3230;42.588;23.358;2024-01-07T14:47:51;8.87;;;4.80;;
6394;SDS011;3230;42.588;23.358;2024-01-07T14:50:17;7.20;;;3.90;;
6394;SDS011;3230;42.588;23.358;2024-01-07T14:52:43;5.40;;;3.80;;
6394;SDS011;3230;42.588;23.358;2024-01-07T14:55:09;7.17;;;4.13;;
6394;SDS011;3230;42.588;23.358;2024-01-07T14:57:36;5.00;;;3.70;;
6394;SDS011;3230;42.588;23.358;2024-01-07T15:00:02;6.70;;;4.17;;